Terminal Aerodrome Forecast
Issued by NWS

Home | Current Version | Previous Version | Text Only | Print | Product List | Glossary On
Versions: 1 2 3 4 5 6 7 8 9 10 11 12
000
FTUS42 KMLB 280500
TAFISM
TAF
KISM 280533Z 2806/2906 VRB03KT P6SM FEW020
     FM281500 11007KT P6SM SCT040 SCT150
     FM290200 12002KT P6SM FEW050
      AMD NOT SKED TIL 281100=

USA.gov is the U.S. government's official web portal to all federal, state and local government web resources and services.